Time;durP1;ratioP1;P1;durP2;ratioP2;P2;SDS_P1;SDS_P2;PMS_P1;PMS_P2;Temp;Humidity;BMP_temperature;BMP_pressure;BME280_temperature;BME280_humidity;BME280_pressure;Samples;Min_cycle;Max_cycle;Signal;HPM_P1;HPM_P2
2023/10/30 00:00:55;;;;;;;18.42;8.07;;;;;;;;;;5042372;28;20127;-55
2023/10/30 00:03:21;;;;;;;19.27;8.73;;;;;;;;;;5044760;28;20020;-55
2023/10/30 00:05:47;;;;;;;14.88;7.47;;;;;;;;;;5051522;28;20032;-54
2023/10/30 00:08:13;;;;;;;14.68;7.38;;;;;;;;;;5052649;28;20406;-53
2023/10/30 00:10:38;;;;;;;15.50;7.72;;;;;;;;;;5052469;28;20017;-57
2023/10/30 00:13:04;;;;;;;15.82;7.95;;;;;;;;;;5051327;28;20498;-53
2023/10/30 00:15:30;;;;;;;15.45;7.70;;;;;;;;;;5052640;28;20032;-54
2023/10/30 00:17:56;;;;;;;15.48;8.35;;;;;;;;;;5052308;28;20029;-56
2023/10/30 00:20:22;;;;;;;16.48;7.60;;;;;;;;;;5032350;28;20060;-54
2023/10/30 00:22:48;;;;;;;17.30;8.70;;;;;;;;;;5031321;28;20022;-53
2023/10/30 00:25:15;;;;;;;18.02;7.80;;;;;;;;;;5031055;28;20531;-53
2023/10/30 00:27:41;;;;;;;14.75;7.70;;;;;;;;;;5032592;28;20446;-57
2023/10/30 00:30:08;;;;;;;18.75;7.85;;;;;;;;;;5030977;28;20060;-56
2023/10/30 00:32:34;;;;;;;19.17;8.00;;;;;;;;;;5036536;28;20021;-54
2023/10/30 00:35:00;;;;;;;20.10;7.65;;;;;;;;;;5048037;28;20032;-56
2023/10/30 00:37:26;;;;;;;31.88;8.57;;;;;;;;;;5032617;28;20025;-53
2023/10/30 00:39:52;;;;;;;15.70;7.40;;;;;;;;;;5032337;28;20025;-57
2023/10/30 00:42:18;;;;;;;14.18;7.35;;;;;;;;;;5032258;28;20025;-50
2023/10/30 00:44:44;;;;;;;16.58;7.40;;;;;;;;;;5031054;28;20122;-54
2023/10/30 00:47:10;;;;;;;18.45;8.45;;;;;;;;;;5032185;28;20033;-57
2023/10/30 00:49:36;;;;;;;17.58;7.47;;;;;;;;;;5032001;28;20018;-56
2023/10/30 00:52:02;;;;;;;19.88;8.70;;;;;;;;;;5032089;28;20032;-55
2023/10/30 00:54:28;;;;;;;17.10;7.55;;;;;;;;;;5036689;28;20013;-51
2023/10/30 00:56:54;;;;;;;16.83;7.68;;;;;;;;;;5052355;28;20631;-52
2023/10/30 00:59:20;;;;;;;17.95;7.78;;;;;;;;;;5042302;28;20017;-54
2023/10/30 01:01:46;;;;;;;16.00;7.72;;;;;;;;;;5051977;28;20079;-54
2023/10/30 01:04:14;;;;;;;19.30;8.40;;;;;;;;;;5050338;28;20029;-54
2023/10/30 01:06:40;;;;;;;16.85;8.38;;;;;;;;;;5050461;28;20054;-53
2023/10/30 01:09:05;;;;;;;23.27;8.00;;;;;;;;;;5044288;28;20021;-54
2023/10/30 01:11:32;;;;;;;14.38;7.90;;;;;;;;;;5041417;28;20021;-55
2023/10/30 01:13:58;;;;;;;15.25;7.65;;;;;;;;;;5031646;28;20088;-50
2023/10/30 01:16:24;;;;;;;17.92;7.65;;;;;;;;;;5031734;28;20021;-53
2023/10/30 01:18:50;;;;;;;17.08;8.05;;;;;;;;;;5031594;28;20029;-54
2023/10/30 01:21:17;;;;;;;23.30;8.93;;;;;;;;;;5031263;28;20398;-54
2023/10/30 01:23:43;;;;;;;15.93;7.82;;;;;;;;;;5030156;28;20048;-52
2023/10/30 01:26:09;;;;;;;21.77;9.20;;;;;;;;;;5031362;28;20025;-51
2023/10/30 01:28:35;;;;;;;15.07;7.65;;;;;;;;;;5031443;28;20026;-54
2023/10/30 01:31:01;;;;;;;18.83;7.88;;;;;;;;;;5030978;28;20484;-55
2023/10/30 01:33:27;;;;;;;15.27;7.63;;;;;;;;;;5030211;28;20022;-52
2023/10/30 01:35:53;;;;;;;16.58;7.90;;;;;;;;;;5039420;28;20025;-56
2023/10/30 01:38:19;;;;;;;17.00;7.82;;;;;;;;;;5051218;28;20391;-55
2023/10/30 01:40:48;;;;;;;15.23;7.85;;;;;;;;;;5050769;28;20017;-56
2023/10/30 01:43:14;;;;;;;18.55;8.43;;;;;;;;;;5050851;28;20025;-54
2023/10/30 01:45:40;;;;;;;16.92;7.90;;;;;;;;;;5049663;28;20021;-54
2023/10/30 01:48:06;;;;;;;19.50;7.60;;;;;;;;;;5050799;28;20449;-56
2023/10/30 01:50:33;;;;;;;15.18;7.85;;;;;;;;;;5050710;28;20039;-52
2023/10/30 01:52:59;;;;;;;16.83;8.02;;;;;;;;;;5050855;28;20021;-53
2023/10/30 01:55:25;;;;;;;15.82;7.70;;;;;;;;;;5046796;28;20013;-55
2023/10/30 01:57:51;;;;;;;16.38;7.47;;;;;;;;;;5030677;28;20606;-50
2023/10/30 02:00:17;;;;;;;15.70;7.53;;;;;;;;;;5030558;28;20064;-61
2023/10/30 02:02:43;;;;;;;17.90;7.70;;;;;;;;;;5029551;28;20032;-54
2023/10/30 02:05:10;;;;;;;16.15;7.78;;;;;;;;;;5030627;28;20080;-52
2023/10/30 02:07:36;;;;;;;20.17;7.90;;;;;;;;;;5030782;28;20036;-51
2023/10/30 02:10:03;;;;;;;19.42;8.10;;;;;;;;;;5029031;28;20037;-53
2023/10/30 02:12:29;;;;;;;14.77;7.80;;;;;;;;;;5029548;28;20025;-51
2023/10/30 02:14:55;;;;;;;14.65;7.47;;;;;;;;;;5030539;28;20017;-51
2023/10/30 02:17:21;;;;;;;18.95;8.57;;;;;;;;;;5038991;28;20028;-52
2023/10/30 02:19:47;;;;;;;16.13;7.40;;;;;;;;;;5030245;28;20044;-51
2023/10/30 02:22:13;;;;;;;15.15;7.68;;;;;;;;;;5030266;28;20514;-55
2023/10/30 02:24:39;;;;;;;17.75;8.10;;;;;;;;;;5030458;28;20022;-53
2023/10/30 02:27:05;;;;;;;16.90;7.47;;;;;;;;;;5030347;28;20533;-54
2023/10/30 02:29:31;;;;;;;18.33;7.35;;;;;;;;;;5030358;28;20053;-50
2023/10/30 02:31:57;;;;;;;16.23;7.78;;;;;;;;;;5030650;28;20033;-53
2023/10/30 02:34:23;;;;;;;18.67;7.80;;;;;;;;;;5030746;28;20018;-52
2023/10/30 02:36:49;;;;;;;15.25;7.40;;;;;;;;;;5031235;28;20026;-52
2023/10/30 02:39:15;;;;;;;16.63;7.65;;;;;;;;;;5030329;28;20029;-52
2023/10/30 02:41:41;;;;;;;17.48;7.60;;;;;;;;;;5029008;28;20025;-53
2023/10/30 02:44:07;;;;;;;15.32;7.75;;;;;;;;;;5030172;28;20559;-54
2023/10/30 02:46:33;;;;;;;16.27;7.18;;;;;;;;;;5030131;28;20033;-53
2023/10/30 02:48:59;;;;;;;16.70;7.68;;;;;;;;;;5028779;28;20087;-49
2023/10/30 02:51:25;;;;;;;16.00;7.82;;;;;;;;;;5029761;28;20025;-51
2023/10/30 02:53:51;;;;;;;16.92;8.15;;;;;;;;;;5030095;28;20510;-51
2023/10/30 02:56:17;;;;;;;19.52;8.13;;;;;;;;;;5029898;28;20041;-55
2023/10/30 02:58:43;;;;;;;15.43;8.05;;;;;;;;;;5030138;28;20521;-52
2023/10/30 03:01:10;;;;;;;13.98;6.90;;;;;;;;;;5029617;28;20029;-55
2023/10/30 03:03:36;;;;;;;14.55;7.05;;;;;;;;;;5028703;28;20060;-57
2023/10/30 03:06:02;;;;;;;17.23;7.25;;;;;;;;;;5029796;28;20036;-55
2023/10/30 03:08:28;;;;;;;21.17;7.18;;;;;;;;;;5030017;28;20018;-51
2023/10/30 03:10:54;;;;;;;16.38;6.93;;;;;;;;;;5028345;28;20159;-54
2023/10/30 03:13:20;;;;;;;17.85;7.43;;;;;;;;;;5028464;28;20518;-55
2023/10/30 03:15:46;;;;;;;19.52;8.88;;;;;;;;;;5029836;28;20041;-52
2023/10/30 03:18:12;;;;;;;14.65;7.10;;;;;;;;;;5048372;28;20021;-54
2023/10/30 03:20:38;;;;;;;18.08;6.95;;;;;;;;;;5049299;28;20017;-55
2023/10/30 03:23:05;;;;;;;16.67;7.72;;;;;;;;;;5049511;28;20032;-57
2023/10/30 03:25:31;;;;;;;16.55;7.35;;;;;;;;;;5036721;28;20029;-55
2023/10/30 03:27:57;;;;;;;15.32;7.65;;;;;;;;;;5036944;28;20546;-56
2023/10/30 03:30:23;;;;;;;16.35;7.50;;;;;;;;;;5049404;28;20099;-52
2023/10/30 03:32:49;;;;;;;14.45;7.25;;;;;;;;;;5049919;28;20050;-54
2023/10/30 03:35:15;;;;;;;19.00;8.25;;;;;;;;;;5051030;28;20474;-55
2023/10/30 03:37:41;;;;;;;15.23;7.32;;;;;;;;;;5052185;28;20119;-52
2023/10/30 03:40:07;;;;;;;18.00;7.15;;;;;;;;;;5053052;28;20103;-54
2023/10/30 03:42:33;;;;;;;15.70;7.15;;;;;;;;;;5053418;28;20488;-51
2023/10/30 03:44:59;;;;;;;15.82;7.28;;;;;;;;;;5053066;28;20028;-52
2023/10/30 03:47:25;;;;;;;13.23;7.10;;;;;;;;;;5049432;28;20110;-56
2023/10/30 03:49:51;;;;;;;17.10;6.88;;;;;;;;;;5033106;28;20100;-49
2023/10/30 03:52:17;;;;;;;18.00;7.70;;;;;;;;;;5033135;28;20487;-52
2023/10/30 03:54:43;;;;;;;21.05;7.40;;;;;;;;;;5033106;28;20021;-50
2023/10/30 03:57:09;;;;;;;16.30;7.50;;;;;;;;;;5033038;28;20514;-54
2023/10/30 03:59:35;;;;;;;14.38;7.25;;;;;;;;;;5033015;28;20033;-55
2023/10/30 04:02:01;;;;;;;16.70;7.13;;;;;;;;;;5032987;28;20057;-52
2023/10/30 04:04:27;;;;;;;15.02;7.10;;;;;;;;;;5033092;28;20033;-54
2023/10/30 04:06:53;;;;;;;15.95;7.97;;;;;;;;;;5033093;28;20026;-57
2023/10/30 04:09:19;;;;;;;15.02;6.90;;;;;;;;;;5033036;28;20044;-56
2023/10/30 04:11:46;;;;;;;18.38;7.93;;;;;;;;;;5033373;28;20021;-57
2023/10/30 04:14:12;;;;;;;16.17;7.30;;;;;;;;;;5032827;28;20025;-53
2023/10/30 04:16:38;;;;;;;15.65;7.45;;;;;;;;;;5033048;28;20028;-56
2023/10/30 04:19:04;;;;;;;15.07;7.28;;;;;;;;;;5032495;28;20033;-51
2023/10/30 04:21:30;;;;;;;16.90;7.85;;;;;;;;;;5032305;28;20029;-54
2023/10/30 04:23:57;;;;;;;15.40;7.32;;;;;;;;;;5032683;28;20160;-55
2023/10/30 04:26:23;;;;;;;26.27;8.63;;;;;;;;;;5043468;28;20047;-54
2023/10/30 04:28:49;;;;;;;15.65;7.57;;;;;;;;;;5052706;28;20100;-56
2023/10/30 04:31:15;;;;;;;17.92;7.68;;;;;;;;;;5050928;28;20198;-54
2023/10/30 04:33:41;;;;;;;15.27;7.88;;;;;;;;;;5051100;28;20053;-54
2023/10/30 04:36:07;;;;;;;16.00;7.80;;;;;;;;;;5052202;28;20025;-54
2023/10/30 04:38:34;;;;;;;17.10;7.60;;;;;;;;;;5052350;28;20455;-50
2023/10/30 04:41:04;;;;;;;18.73;7.38;;;;;;;;;;5051678;28;20025;-56
2023/10/30 04:43:30;;;;;;;16.90;7.38;;;;;;;;;;5052843;28;20471;-55
2023/10/30 04:45:56;;;;;;;18.23;7.78;;;;;;;;;;5051835;28;20399;-55
2023/10/30 04:48:22;;;;;;;16.00;7.30;;;;;;;;;;5048542;28;20018;-53
2023/10/30 04:50:48;;;;;;;16.58;7.43;;;;;;;;;;5031819;28;20525;-55
2023/10/30 04:53:14;;;;;;;20.25;8.15;;;;;;;;;;5043301;28;20036;-57
2023/10/30 04:55:40;;;;;;;15.77;7.47;;;;;;;;;;5051923;28;20543;-54
2023/10/30 04:58:06;;;;;;;21.00;7.80;;;;;;;;;;5052254;28;20150;-54
2023/10/30 05:00:32;;;;;;;18.50;8.15;;;;;;;;;;5051568;28;20021;-55
2023/10/30 05:02:58;;;;;;;20.88;7.90;;;;;;;;;;5051904;28;20151;-56
2023/10/30 05:05:24;;;;;;;17.75;7.93;;;;;;;;;;5050361;28;20056;-51
2023/10/30 05:07:50;;;;;;;15.27;8.20;;;;;;;;;;5051862;28;20494;-51
2023/10/30 05:10:16;;;;;;;15.77;8.05;;;;;;;;;;5051872;28;20052;-52
2023/10/30 05:12:42;;;;;;;18.58;8.52;;;;;;;;;;5052151;28;20021;-53
2023/10/30 05:15:08;;;;;;;16.90;8.13;;;;;;;;;;5050425;28;20036;-52
2023/10/30 05:17:38;;;;;;;16.55;7.88;;;;;;;;;;5051658;28;20135;-52
2023/10/30 05:20:04;;;;;;;17.08;8.13;;;;;;;;;;5051291;28;20033;-54
2023/10/30 05:22:32;;;;;;;15.50;7.70;;;;;;;;;;5050140;28;20025;-50
2023/10/30 05:24:58;;;;;;;25.73;9.38;;;;;;;;;;5051319;28;20040;-50
2023/10/30 05:27:27;;;;;;;15.90;7.63;;;;;;;;;;5051838;28;20028;-52
2023/10/30 05:29:53;;;;;;;15.80;7.97;;;;;;;;;;5076881;22;20087;-58
2023/10/30 05:32:19;;;;;;;16.40;8.02;;;;;;;;;;5071701;28;20033;-54
2023/10/30 05:34:46;;;;;;;14.68;7.75;;;;;;;;;;5071785;28;20029;-59
2023/10/30 05:37:12;;;;;;;20.85;7.85;;;;;;;;;;5071938;28;20035;-58
2023/10/30 05:39:38;;;;;;;16.77;8.27;;;;;;;;;;5071418;28;20028;-58
2023/10/30 05:42:05;;;;;;;14.50;8.18;;;;;;;;;;5071424;28;20081;-59
2023/10/30 05:44:31;;;;;;;15.25;8.20;;;;;;;;;;5053710;28;20020;-60
2023/10/30 05:46:57;;;;;;;18.02;8.40;;;;;;;;;;5072022;28;20091;-60
2023/10/30 05:49:24;;;;;;;15.77;7.80;;;;;;;;;;5072096;28;20016;-61
2023/10/30 05:51:50;;;;;;;15.90;8.00;;;;;;;;;;5071689;28;20436;-59
2023/10/30 05:54:16;;;;;;;14.60;7.68;;;;;;;;;;5071685;28;20024;-61
2023/10/30 05:56:42;;;;;;;17.20;8.10;;;;;;;;;;5071776;28;20032;-58
2023/10/30 05:59:08;;;;;;;18.13;8.05;;;;;;;;;;5071547;28;20244;-59
2023/10/30 06:01:34;;;;;;;16.30;7.93;;;;;;;;;;5053863;28;20028;-60
2023/10/30 06:04:00;;;;;;;21.20;9.10;;;;;;;;;;5071589;28;20048;-60
2023/10/30 06:06:26;;;;;;;16.08;7.80;;;;;;;;;;5071427;28;20103;-59
2023/10/30 06:08:52;;;;;;;17.15;9.02;;;;;;;;;;5071860;28;20020;-61
2023/10/30 06:11:18;;;;;;;16.05;7.88;;;;;;;;;;5071020;28;20025;-59
2023/10/30 06:13:44;;;;;;;18.17;8.52;;;;;;;;;;5071564;28;20032;-62
2023/10/30 06:16:20;;;;;;;18.67;8.30;;;;;;;;;;5053278;28;20082;-62
2023/10/30 06:18:46;;;;;;;17.67;8.20;;;;;;;;;;5071568;28;20520;-59
2023/10/30 06:21:16;;;;;;;17.65;8.45;;;;;;;;;;5071482;28;20445;-60
2023/10/30 06:23:42;;;;;;;17.75;7.68;;;;;;;;;;5071225;28;20454;-59
2023/10/30 06:26:11;;;;;;;18.45;8.20;;;;;;;;;;5071574;28;20032;-61
2023/10/30 06:28:41;;;;;;;21.88;8.50;;;;;;;;;;5070767;28;20094;-61
2023/10/30 06:31:17;;;;;;;14.85;7.47;;;;;;;;;;5043049;28;20017;-58
2023/10/30 06:33:43;;;;;;;18.02;8.52;;;;;;;;;;5050612;28;20107;-61
2023/10/30 06:36:09;;;;;;;17.65;8.90;;;;;;;;;;5060949;28;20036;-58
2023/10/30 06:38:36;;;;;;;18.63;8.10;;;;;;;;;;5051926;28;20100;-55
2023/10/30 06:41:03;;;;;;;15.85;7.78;;;;;;;;;;5050555;28;20375;-58
2023/10/30 06:43:29;;;;;;;16.23;7.88;;;;;;;;;;5050576;28;20028;-60
2023/10/30 06:46:04;;;;;;;20.33;7.43;;;;;;;;;;5032847;28;20073;-61
2023/10/30 06:48:30;;;;;;;16.98;7.90;;;;;;;;;;5055753;28;20390;-60
2023/10/30 06:50:57;;;;;;;18.38;7.57;;;;;;;;;;5069662;28;20158;-60
2023/10/30 06:53:23;;;;;;;15.73;8.40;;;;;;;;;;5070734;28;20107;-59
2023/10/30 06:55:50;;;;;;;25.33;7.93;;;;;;;;;;5070574;28;20080;-60
2023/10/30 06:58:16;;;;;;;21.05;8.15;;;;;;;;;;5070879;28;20029;-58
2023/10/30 07:00:42;;;;;;;19.02;8.85;;;;;;;;;;5051935;28;20143;-59
2023/10/30 07:03:08;;;;;;;17.40;7.85;;;;;;;;;;5070218;28;20486;-61
2023/10/30 07:05:34;;;;;;;15.82;8.32;;;;;;;;;;5058672;28;20104;-58
2023/10/30 07:08:00;;;;;;;19.38;7.90;;;;;;;;;;5032461;28;20101;-61
2023/10/30 07:10:26;;;;;;;19.30;7.97;;;;;;;;;;5044661;28;20013;-57
2023/10/30 07:12:53;;;;;;;17.08;7.68;;;;;;;;;;5053963;28;20025;-58
2023/10/30 07:15:20;;;;;;;16.02;7.85;;;;;;;;;;5054697;28;20025;-58
2023/10/30 07:17:47;;;;;;;18.95;7.60;;;;;;;;;;5054439;28;20044;-61
2023/10/30 07:20:13;;;;;;;17.77;7.78;;;;;;;;;;5054471;28;20025;-61
2023/10/30 07:22:39;;;;;;;17.85;7.70;;;;;;;;;;5054928;28;20048;-62
2023/10/30 07:25:07;;;;;;;15.93;7.43;;;;;;;;;;5054276;28;21027;-59
2023/10/30 07:27:36;;;;;;;20.63;7.80;;;;;;;;;;5054171;28;20714;-62
2023/10/30 07:30:02;;;;;;;20.10;7.28;;;;;;;;;;5053413;28;20112;-61
2023/10/30 07:32:28;;;;;;;14.98;7.60;;;;;;;;;;5058711;28;20016;-58
2023/10/30 07:34:54;;;;;;;15.75;7.40;;;;;;;;;;5055913;28;20056;-61
2023/10/30 07:37:20;;;;;;;17.65;8.00;;;;;;;;;;5074290;28;20017;-62
2023/10/30 07:39:46;;;;;;;16.42;7.88;;;;;;;;;;5073651;28;20037;-60
2023/10/30 07:42:12;;;;;;;16.83;8.10;;;;;;;;;;5038818;28;20036;-60
2023/10/30 07:44:38;;;;;;;18.60;8.32;;;;;;;;;;5053951;28;20025;-60
2023/10/30 07:47:04;;;;;;;16.60;7.75;;;;;;;;;;5053428;28;20037;-60
2023/10/30 07:49:30;;;;;;;15.98;7.90;;;;;;;;;;5054194;28;20024;-61
2023/10/30 07:51:56;;;;;;;16.45;8.23;;;;;;;;;;5053124;28;20032;-60
2023/10/30 07:54:23;;;;;;;16.67;8.23;;;;;;;;;;5051511;28;20021;-60
2023/10/30 07:56:49;;;;;;;17.98;8.98;;;;;;;;;;5050013;28;20065;-61
2023/10/30 07:59:15;;;;;;;18.02;8.40;;;;;;;;;;5053020;28;20025;-57
2023/10/30 08:01:41;;;;;;;16.65;8.50;;;;;;;;;;5053287;28;20244;-61
2023/10/30 08:04:09;;;;;;;18.42;8.73;;;;;;;;;;5035354;28;20036;-61
2023/10/30 08:06:35;;;;;;;16.38;7.85;;;;;;;;;;5058685;28;20107;-62
2023/10/30 08:09:02;;;;;;;14.73;7.93;;;;;;;;;;5073894;28;20045;-61
2023/10/30 08:11:28;;;;;;;17.75;7.97;;;;;;;;;;5055415;28;20017;-57
2023/10/30 08:13:54;;;;;;;20.05;8.35;;;;;;;;;;5073936;28;20021;-59
2023/10/30 08:16:20;;;;;;;16.15;8.20;;;;;;;;;;5059065;28;20112;-53
2023/10/30 08:18:46;;;;;;;17.38;7.90;;;;;;;;;;5050832;28;20079;-52
2023/10/30 08:21:13;;;;;;;17.13;8.40;;;;;;;;;;5050036;28;20117;-53
2023/10/30 08:23:39;;;;;;;16.98;8.60;;;;;;;;;;5056233;28;20032;-53
2023/10/30 08:26:08;;;;;;;21.27;8.68;;;;;;;;;;5054663;28;20075;-51
2023/10/30 08:28:35;;;;;;;18.70;8.52;;;;;;;;;;5050595;28;20029;-53
2023/10/30 08:31:02;;;;;;;17.30;8.13;;;;;;;;;;5051077;28;20029;-53
2023/10/30 08:33:28;;;;;;;17.20;8.50;;;;;;;;;;5054398;28;20012;-53
2023/10/30 08:35:54;;;;;;;14.45;8.15;;;;;;;;;;5070418;28;20039;-54
2023/10/30 08:38:20;;;;;;;15.27;9.00;;;;;;;;;;5070349;28;20025;-54
2023/10/30 08:40:46;;;;;;;16.63;8.20;;;;;;;;;;5070032;28;20032;-52
2023/10/30 08:43:12;;;;;;;16.08;8.40;;;;;;;;;;5070107;28;20394;-52
2023/10/30 08:45:38;;;;;;;16.42;8.30;;;;;;;;;;5049101;28;20110;-55
2023/10/30 08:48:05;;;;;;;19.77;8.27;;;;;;;;;;5047688;28;20017;-53
2023/10/30 08:50:31;;;;;;;18.27;9.77;;;;;;;;;;5054045;28;20056;-46
2023/10/30 08:52:57;;;;;;;16.73;9.25;;;;;;;;;;5069701;28;20466;-52
2023/10/30 08:55:23;;;;;;;16.30;8.18;;;;;;;;;;5057834;28;20148;-53
2023/10/30 08:57:49;;;;;;;18.73;8.38;;;;;;;;;;5052653;28;20482;-53
2023/10/30 09:00:16;;;;;;;16.95;8.70;;;;;;;;;;5051670;28;20064;-53
2023/10/30 09:02:43;;;;;;;15.73;8.03;;;;;;;;;;5069884;28;20036;-55
2023/10/30 09:05:10;;;;;;;16.67;8.70;;;;;;;;;;5069897;28;20111;-57
2023/10/30 09:07:36;;;;;;;18.98;8.50;;;;;;;;;;5070166;28;20517;-52
2023/10/30 09:10:03;;;;;;;16.95;8.95;;;;;;;;;;5059768;28;20028;-54
2023/10/30 09:12:29;;;;;;;18.30;9.10;;;;;;;;;;5069911;28;20378;-53
2023/10/30 09:14:54;;;;;;;17.60;9.25;;;;;;;;;;5069706;28;20020;-55
2023/10/30 09:17:21;;;;;;;17.20;8.60;;;;;;;;;;5069291;28;20383;-54
2023/10/30 09:19:47;;;;;;;20.17;9.02;;;;;;;;;;5069555;28;20032;-49
2023/10/30 09:22:13;;;;;;;21.23;9.32;;;;;;;;;;5069368;28;20025;-50
2023/10/30 09:24:39;;;;;;;16.92;8.70;;;;;;;;;;5069218;28;20035;-53
2023/10/30 09:27:05;;;;;;;20.30;9.70;;;;;;;;;;5053501;28;20396;-54
2023/10/30 09:29:31;;;;;;;23.88;9.73;;;;;;;;;;5050470;28;20079;-53
2023/10/30 09:31:59;;;;;;;16.80;8.75;;;;;;;;;;5049009;28;20112;-53
2023/10/30 09:34:25;;;;;;;15.15;8.63;;;;;;;;;;5054028;28;20063;-51
2023/10/30 09:36:51;;;;;;;16.27;9.05;;;;;;;;;;5069325;28;20020;-54
2023/10/30 09:39:17;;;;;;;17.92;9.60;;;;;;;;;;5050821;28;20418;-51
2023/10/30 09:41:45;;;;;;;16.35;8.98;;;;;;;;;;5051210;28;20031;-55
2023/10/30 09:44:12;;;;;;;18.08;9.57;;;;;;;;;;5046807;28;20031;-53
2023/10/30 09:46:39;;;;;;;17.25;9.63;;;;;;;;;;5031317;28;20078;-55
2023/10/30 09:49:06;;;;;;;16.30;8.90;;;;;;;;;;5048156;28;20079;-54
2023/10/30 09:51:32;;;;;;;18.48;9.00;;;;;;;;;;5049013;28;20029;-52
2023/10/30 09:53:59;;;;;;;17.80;9.30;;;;;;;;;;5049228;28;20025;-52
2023/10/30 09:56:25;;;;;;;17.63;8.77;;;;;;;;;;5049253;28;20029;-52
2023/10/30 09:58:52;;;;;;;15.77;9.68;;;;;;;;;;5049330;28;20157;-52
2023/10/30 10:01:19;;;;;;;18.20;9.30;;;;;;;;;;5049262;28;20462;-52
2023/10/30 10:03:45;;;;;;;19.48;9.00;;;;;;;;;;5049255;28;20548;-55
2023/10/30 10:06:11;;;;;;;17.48;9.40;;;;;;;;;;5049157;28;20024;-54
2023/10/30 10:08:37;;;;;;;16.17;8.70;;;;;;;;;;5048989;28;20502;-55
2023/10/30 10:11:05;;;;;;;16.63;9.30;;;;;;;;;;5048663;28;20470;-55
2023/10/30 10:13:33;;;;;;;16.75;9.25;;;;;;;;;;5049107;28;20352;-53
2023/10/30 10:16:00;;;;;;;16.20;9.27;;;;;;;;;;5049015;28;20482;-55
2023/10/30 10:18:30;;;;;;;16.00;9.38;;;;;;;;;;5048863;28;20265;-52
2023/10/30 10:21:08;;;;;;;18.00;9.73;;;;;;;;;;5048400;28;20048;-51
2023/10/30 10:23:34;;;;;;;16.17;8.70;;;;;;;;;;5048502;28;20048;-54
2023/10/30 10:26:03;;;;;;;17.33;9.63;;;;;;;;;;5048437;28;20029;-48
2023/10/30 10:28:29;;;;;;;16.92;8.98;;;;;;;;;;5048562;28;20025;-56
2023/10/30 10:30:56;;;;;;;16.65;9.40;;;;;;;;;;5048045;28;20123;-51
2023/10/30 10:33:22;;;;;;;19.50;10.23;;;;;;;;;;5048534;28;20044;-53
2023/10/30 10:35:53;;;;;;;15.73;9.30;;;;;;;;;;5048498;28;20090;-52
2023/10/30 10:38:21;;;;;;;16.80;9.43;;;;;;;;;;5048415;28;20053;-53
2023/10/30 10:40:47;;;;;;;17.38;9.35;;;;;;;;;;5048228;28;20514;-52
2023/10/30 10:43:18;;;;;;;18.92;9.80;;;;;;;;;;5048284;28;20430;-55
2023/10/30 10:45:45;;;;;;;16.92;9.57;;;;;;;;;;5048444;28;20197;-54
2023/10/30 10:48:11;;;;;;;17.73;10.15;;;;;;;;;;5048076;28;20108;-53
2023/10/30 10:50:37;;;;;;;16.15;9.85;;;;;;;;;;5048011;28;20021;-54
2023/10/30 10:53:04;;;;;;;17.10;9.60;;;;;;;;;;5048592;28;20032;-56
2023/10/30 10:55:33;;;;;;;17.52;9.80;;;;;;;;;;5048847;28;20025;-54
2023/10/30 10:57:59;;;;;;;15.77;9.50;;;;;;;;;;5048523;28;20044;-57
2023/10/30 11:00:31;;;;;;;16.63;10.20;;;;;;;;;;5048046;28;20159;-54
2023/10/30 11:02:58;;;;;;;16.73;9.43;;;;;;;;;;5048347;28;20368;-55
2023/10/30 11:05:29;;;;;;;19.50;9.10;;;;;;;;;;5048397;28;20025;-56
2023/10/30 11:08:03;;;;;;;15.25;9.82;;;;;;;;;;5048162;28;20025;-53
2023/10/30 11:10:38;;;;;;;18.88;10.00;;;;;;;;;;5063198;28;20066;-52
2023/10/30 11:13:08;;;;;;;15.73;9.50;;;;;;;;;;5048239;28;20072;-53
2023/10/30 11:15:37;;;;;;;18.17;9.43;;;;;;;;;;5047985;28;20423;-56
2023/10/30 11:18:15;;;;;;;15.60;8.88;;;;;;;;;;5047861;28;20035;-55
2023/10/30 11:20:45;;;;;;;17.77;9.02;;;;;;;;;;5047663;28;20071;-52
2023/10/30 11:23:12;;;;;;;15.77;9.25;;;;;;;;;;5047692;28;20108;-57
2023/10/30 11:25:42;;;;;;;16.92;9.77;;;;;;;;;;5047823;28;20065;-56
2023/10/30 11:28:08;;;;;;;17.65;9.60;;;;;;;;;;5048086;28;20385;-55
2023/10/30 11:30:42;;;;;;;19.20;9.60;;;;;;;;;;5048400;28;20037;-54
2023/10/30 11:33:19;;;;;;;15.55;10.77;;;;;;;;;;5047889;28;20519;-55
2023/10/30 11:35:45;;;;;;;14.90;10.10;;;;;;;;;;5045648;28;20046;-53
2023/10/30 11:38:12;;;;;;;15.15;11.05;;;;;;;;;;5043565;28;20486;-58
2023/10/30 11:40:38;;;;;;;15.52;10.43;;;;;;;;;;5047208;28;20017;-53
2023/10/30 11:43:07;;;;;;;15.32;11.15;;;;;;;;;;5048362;28;20086;-56
2023/10/30 11:45:33;;;;;;;15.57;11.00;;;;;;;;;;5045641;28;20070;-56
2023/10/30 11:48:03;;;;;;;16.00;11.13;;;;;;;;;;5047276;28;20025;-57
2023/10/30 11:50:36;;;;;;;16.08;11.40;;;;;;;;;;5048149;28;20386;-56
2023/10/30 11:53:09;;;;;;;16.95;11.38;;;;;;;;;;5046286;28;20048;-55
2023/10/30 11:55:42;;;;;;;16.42;11.10;;;;;;;;;;5047434;28;20037;-57
2023/10/30 11:58:09;;;;;;;17.58;11.57;;;;;;;;;;5051147;28;20359;-57
2023/10/30 12:00:35;;;;;;;14.75;11.13;;;;;;;;;;5050892;28;20029;-56
2023/10/30 12:03:03;;;;;;;16.05;11.10;;;;;;;;;;5051066;28;20021;-57
2023/10/30 12:05:29;;;;;;;19.52;11.52;;;;;;;;;;5050851;28;20150;-56
2023/10/30 12:07:55;;;;;;;16.80;11.40;;;;;;;;;;5050938;28;20661;-60
2023/10/30 12:10:22;;;;;;;17.33;12.00;;;;;;;;;;5050500;28;20045;-59
2023/10/30 12:12:48;;;;;;;16.15;11.30;;;;;;;;;;5050892;28;20364;-60
2023/10/30 12:15:14;;;;;;;16.30;11.20;;;;;;;;;;5050636;28;20080;-58
2023/10/30 12:17:41;;;;;;;16.23;11.70;;;;;;;;;;5050944;28;20106;-59
2023/10/30 12:20:07;;;;;;;15.80;11.70;;;;;;;;;;5050552;28;20028;-59
2023/10/30 12:22:39;;;;;;;15.02;11.43;;;;;;;;;;5050704;28;20102;-55
2023/10/30 12:25:06;;;;;;;15.35;11.27;;;;;;;;;;5050784;28;20032;-57
2023/10/30 12:27:33;;;;;;;15.93;11.50;;;;;;;;;;5050816;28;20032;-60
2023/10/30 12:30:08;;;;;;;15.52;11.23;;;;;;;;;;5050376;28;20033;-57
2023/10/30 12:32:34;;;;;;;15.10;11.38;;;;;;;;;;5040662;28;20112;-57
2023/10/30 12:35:10;;;;;;;16.42;11.45;;;;;;;;;;5067070;28;20052;-58
2023/10/30 12:37:37;;;;;;;14.90;11.38;;;;;;;;;;5062275;28;20021;-57
2023/10/30 12:40:04;;;;;;;16.08;11.20;;;;;;;;;;5070044;28;20047;-54
2023/10/30 12:42:49;;;;;;;15.30;11.48;;;;;;;;;;5066207;28;20063;-56
2023/10/30 12:45:19;;;;;;;16.52;11.57;;;;;;;;;;5059886;28;20033;-54
2023/10/30 12:47:46;;;;;;;15.65;11.30;;;;;;;;;;5070409;28;20100;-54
2023/10/30 12:50:12;;;;;;;15.13;11.10;;;;;;;;;;5067691;28;20040;-57
2023/10/30 12:52:39;;;;;;;15.13;10.80;;;;;;;;;;5052679;28;20025;-53
2023/10/30 12:55:05;;;;;;;15.20;11.57;;;;;;;;;;5032604;28;20037;-57
2023/10/30 12:57:32;;;;;;;15.27;11.45;;;;;;;;;;5032774;28;20025;-57
2023/10/30 12:59:59;;;;;;;15.30;11.35;;;;;;;;;;5058329;28;20051;-52
2023/10/30 13:02:26;;;;;;;15.13;11.10;;;;;;;;;;5070717;28;20062;-56
2023/10/30 13:04:52;;;;;;;15.32;11.50;;;;;;;;;;5053532;28;20021;-54
2023/10/30 13:07:18;;;;;;;15.32;11.30;;;;;;;;;;5051260;28;20028;-55
2023/10/30 13:09:47;;;;;;;14.80;11.00;;;;;;;;;;5056208;28;20390;-56
2023/10/30 13:12:13;;;;;;;17.50;11.00;;;;;;;;;;5052535;28;20075;-56
2023/10/30 13:14:39;;;;;;;15.93;11.48;;;;;;;;;;5058161;28;20031;-57
2023/10/30 13:17:05;;;;;;;15.45;11.30;;;;;;;;;;5032856;28;20213;-56
2023/10/30 13:19:31;;;;;;;15.20;11.30;;;;;;;;;;5069728;28;20023;-57
2023/10/30 13:21:58;;;;;;;14.57;10.80;;;;;;;;;;5067764;28;20012;-58
2023/10/30 13:24:24;;;;;;;16.42;11.70;;;;;;;;;;5053032;28;20350;-56
2023/10/30 13:26:50;;;;;;;15.70;11.30;;;;;;;;;;5055747;28;20058;-53
2023/10/30 13:29:16;;;;;;;17.35;11.68;;;;;;;;;;5056943;28;20036;-57
2023/10/30 13:31:42;;;;;;;15.57;11.30;;;;;;;;;;5049552;28;20033;-54
2023/10/30 13:34:08;;;;;;;15.70;10.88;;;;;;;;;;5049662;28;20470;-57
2023/10/30 13:36:34;;;;;;;15.75;10.85;;;;;;;;;;5062710;28;20103;-57
2023/10/30 13:39:00;;;;;;;14.35;10.13;;;;;;;;;;5052777;28;20021;-57
2023/10/30 13:41:26;;;;;;;18.30;10.57;;;;;;;;;;5069233;28;20100;-60
2023/10/30 13:43:52;;;;;;;15.82;11.10;;;;;;;;;;5054421;28;20036;-57
2023/10/30 13:46:18;;;;;;;16.88;10.30;;;;;;;;;;5049208;28;20068;-55
2023/10/30 13:48:45;;;;;;;18.55;10.90;;;;;;;;;;5049351;28;20025;-57
2023/10/30 13:51:11;;;;;;;15.63;10.70;;;;;;;;;;5049041;28;20096;-58
2023/10/30 13:53:37;;;;;;;15.73;10.50;;;;;;;;;;5053941;28;20029;-57
2023/10/30 13:56:03;;;;;;;16.20;10.23;;;;;;;;;;5069127;28;20063;-57
2023/10/30 13:58:29;;;;;;;14.85;10.30;;;;;;;;;;5059848;28;20498;-59
2023/10/30 14:00:55;;;;;;;15.35;9.88;;;;;;;;;;5046937;28;20024;-55
2023/10/30 14:03:21;;;;;;;15.20;10.85;;;;;;;;;;5049116;28;20032;-59
2023/10/30 14:05:47;;;;;;;15.77;11.15;;;;;;;;;;5048979;28;20478;-58
2023/10/30 14:08:13;;;;;;;16.00;10.20;;;;;;;;;;5049640;28;20024;-57
2023/10/30 14:10:39;;;;;;;19.25;11.50;;;;;;;;;;5045982;28;20092;-56
2023/10/30 14:13:05;;;;;;;15.75;10.48;;;;;;;;;;5056850;28;20032;-58
2023/10/30 14:15:31;;;;;;;15.10;10.02;;;;;;;;;;5054752;28;20086;-55
2023/10/30 14:17:57;;;;;;;14.38;9.93;;;;;;;;;;5063074;28;20027;-55
2023/10/30 14:20:23;;;;;;;16.65;10.30;;;;;;;;;;5049272;28;20092;-58
2023/10/30 14:22:49;;;;;;;14.60;9.90;;;;;;;;;;5048927;28;20071;-57
2023/10/30 14:25:15;;;;;;;16.17;10.43;;;;;;;;;;5048557;28;20494;-59